ΕΜΥ, Εθνική Μετεωρολογική Υπηρεσία - Δελτία Καιρού, Προγνώσεις

ΑΕΡΟΝΑΥΤΙΛΙΑ

GREEK AIRPORTS CODES

LGAV 291350Z 07012KT 030V100 9999 FEW030 31/13 Q1013 RMK Q1013.7 NOSIG=

EUROPEAN AIRPORTS CODES

LFPO 291330Z 24007KT 200V310 CAVOK 26/11 Q1013=